Time;durP1;ratioP1;P1;durP2;ratioP2;P2;SDS_P1;SDS_P2;PMS_P1;PMS_P2;Temp;Humidity;BMP_temperature;BMP_pressure;BME280_temperature;BME280_humidity;BME280_pressure;Samples;Min_cycle;Max_cycle;Signal;HPM_P1;HPM_P2
2023/01/21 00:00:48;;;;;;;;;;;;;;;6.36;80.46;99278.06;5091746;28;19919;-42
2023/01/21 00:03:15;;;;;;;;;;;;;;;6.23;80.72;99272.66;5091443;28;19916;-42
2023/01/21 00:05:40;;;;;;;;;;;;;;;6.23;80.98;99262.88;5091394;28;20036;-42
2023/01/21 00:08:05;;;;;;;;;;;;;;;6.14;80.95;99265.84;5091320;28;19912;-42
2023/01/21 00:10:31;;;;;;;;;;;;;;;5.78;82.01;99275.31;5091379;28;19958;-42
2023/01/21 00:12:56;;;;;;;;;;;;;;;5.52;83.53;99274.97;5091332;28;19961;-43
2023/01/21 00:15:21;;;;;;;;;;;;;;;5.77;83.01;99268.41;5091224;28;19919;-43
2023/01/21 00:17:46;;;;;;;;;;;;;;;5.96;82.48;99280.28;5091214;28;19920;-42
2023/01/21 00:20:13;;;;;;;;;;;;;;;5.92;81.72;99286.91;5091319;28;19980;-43
2023/01/21 00:22:38;;;;;;;;;;;;;;;5.81;82.05;99290.00;5091463;28;19912;-43
2023/01/21 00:25:04;;;;;;;;;;;;;;;5.90;81.50;99290.72;5091306;28;20285;-43
2023/01/21 00:27:29;;;;;;;;;;;;;;;5.95;81.05;99283.91;5091086;28;19919;-42
2023/01/21 00:29:54;;;;;;;;;;;;;;;5.72;82.04;99291.09;5090259;28;20390;-42
2023/01/21 00:32:19;;;;;;;;;;;;;;;5.90;81.84;99290.72;5091087;28;19912;-42
2023/01/21 00:34:45;;;;;;;;;;;;;;;5.45;83.08;99290.72;5091564;28;19919;-42
2023/01/21 00:37:10;;;;;;;;;;;;;;;5.48;84.33;99293.84;5090902;28;19964;-42
2023/01/21 00:39:35;;;;;;;;;;;;;;;5.51;84.04;99289.19;5090978;28;20509;-42
2023/01/21 00:42:03;;;;;;;;;;;;;;;5.57;83.43;99304.28;5090840;28;19912;-42
2023/01/21 00:44:28;;;;;;;;;;;;;;;5.83;82.75;99299.38;5090907;28;19929;-42
2023/01/21 00:46:54;;;;;;;;;;;;;;;5.86;82.35;99296.38;5090861;28;20020;-42
2023/01/21 00:49:19;;;;;;;;;;;;;;;5.75;83.14;99302.13;5090856;28;20359;-42
2023/01/21 00:51:44;;;;;;;;;;;;;;;6.05;81.37;99302.94;5090770;28;19912;-42
2023/01/21 00:54:09;;;;;;;;;;;;;;;5.81;81.94;99292.66;5090714;28;19920;-43
2023/01/21 00:56:35;;;;;;;;;;;;;;;5.84;81.88;99302.81;5090434;28;19966;-43
2023/01/21 00:59:00;;;;;;;;;;;;;;;5.81;81.81;99295.28;5090537;28;19913;-43
2023/01/21 01:01:26;;;;;;;;;;;;;;;5.84;81.13;99285.16;5090404;28;19927;-42
2023/01/21 01:03:52;;;;;;;;;;;;;;;5.25;83.31;99296.53;5090426;28;20002;-44
2023/01/21 01:06:18;;;;;;;;;;;;;;;5.47;83.06;99286.91;5090370;28;20360;-43
2023/01/21 01:08:44;;;;;;;;;;;;;;;5.38;83.54;99287.97;5090250;28;20276;-43
2023/01/21 01:11:10;;;;;;;;;;;;;;;5.21;83.81;99287.31;5090465;28;19924;-41
2023/01/21 01:13:36;;;;;;;;;;;;;;;5.41;82.88;99295.53;5090412;28;19947;-42
2023/01/21 01:16:02;;;;;;;;;;;;;;;5.43;81.69;99285.63;5090572;28;19966;-43
2023/01/21 01:18:28;;;;;;;;;;;;;;;5.74;80.87;99271.41;5091044;28;19916;-43
2023/01/21 01:20:53;;;;;;;;;;;;;;;5.76;80.35;99272.06;5090353;28;19925;-43
2023/01/21 01:23:19;;;;;;;;;;;;;;;5.55;80.66;99266.69;5090723;28;19923;-43
2023/01/21 01:25:53;;;;;;;;;;;;;;;5.33;81.15;99281.59;5090396;28;19970;-43
2023/01/21 01:28:18;;;;;;;;;;;;;;;5.35;81.49;99276.97;5090519;28;19938;-43
2023/01/21 01:30:43;;;;;;;;;;;;;;;5.18;83.08;99268.38;5090560;28;20376;-43
2023/01/21 01:33:09;;;;;;;;;;;;;;;5.33;82.44;99260.50;5090608;28;19924;-43
2023/01/21 01:35:34;;;;;;;;;;;;;;;5.18;83.44;99271.88;5090481;28;19959;-43
2023/01/21 01:38:06;;;;;;;;;;;;;;;4.88;83.27;99276.25;5090301;28;19965;-43
2023/01/21 01:40:32;;;;;;;;;;;;;;;4.76;83.87;99277.66;5091638;28;19919;-43
2023/01/21 01:42:57;;;;;;;;;;;;;;;4.97;83.64;99274.34;5094152;28;19912;-43
2023/01/21 01:45:22;;;;;;;;;;;;;;;5.14;82.17;99272.38;5094257;28;19916;-43
2023/01/21 01:47:50;;;;;;;;;;;;;;;4.84;82.85;99265.25;5094205;28;20006;-43
2023/01/21 01:50:18;;;;;;;;;;;;;;;4.79;83.64;99272.88;5094145;28;19912;-43
2023/01/21 01:52:43;;;;;;;;;;;;;;;4.94;82.65;99267.63;5094135;28;20367;-43
2023/01/21 01:55:09;;;;;;;;;;;;;;;5.05;81.85;99255.84;5093867;28;19919;-43
2023/01/21 01:57:37;;;;;;;;;;;;;;;4.86;82.36;99257.16;5093860;28;19916;-43
2023/01/21 02:00:06;;;;;;;;;;;;;;;4.79;82.71;99267.59;5093907;28;20368;-43
2023/01/21 02:02:33;;;;;;;;;;;;;;;4.86;82.08;99257.16;5094043;28;20440;-43
2023/01/21 02:05:00;;;;;;;;;;;;;;;4.85;81.73;99274.78;5093864;28;19912;-43
2023/01/21 02:07:27;;;;;;;;;;;;;;;4.66;82.77;99276.13;5093831;28;19916;-41
2023/01/21 02:09:53;;;;;;;;;;;;;;;5.09;81.49;99275.56;5093767;28;19915;-42
2023/01/21 02:12:19;;;;;;;;;;;;;;;5.00;82.50;99259.00;5093884;28;20011;-42
2023/01/21 02:14:45;;;;;;;;;;;;;;;4.97;81.19;99253.25;5093878;28;19943;-42
2023/01/21 02:17:10;;;;;;;;;;;;;;;5.18;81.00;99263.13;5093635;28;19969;-42
2023/01/21 02:19:54;;;;;;;;;;;;;;;4.79;81.97;99272.88;5093395;28;19993;-42
2023/01/21 02:22:30;;;;;;;;;;;;;;;4.88;81.59;99258.63;5093568;28;19955;-42
2023/01/21 02:24:56;;;;;;;;;;;;;;;4.92;80.97;99268.81;5093397;28;19918;-42
2023/01/21 02:27:24;;;;;;;;;;;;;;;5.13;81.20;99287.41;5093257;28;19998;-42
2023/01/21 02:29:55;;;;;;;;;;;;;;;5.15;81.01;99279.31;5093585;28;19916;-42
2023/01/21 02:32:23;;;;;;;;;;;;;;;4.92;81.73;99288.09;5093155;28;19937;-42
2023/01/21 02:34:57;;;;;;;;;;;;;;;4.92;82.02;99268.81;5093295;28;20034;-42
2023/01/21 02:37:32;;;;;;;;;;;;;;;5.09;81.29;99275.56;5093051;28;19916;-42
2023/01/21 02:39:57;;;;;;;;;;;;;;;5.25;81.13;99274.59;5093374;28;19919;-42
2023/01/21 02:42:41;;;;;;;;;;;;;;;5.20;80.30;99277.78;5093090;28;19916;-43
2023/01/21 02:45:07;;;;;;;;;;;;;;;5.09;80.75;99275.56;5093158;28;20036;-43
2023/01/21 02:47:37;;;;;;;;;;;;;;;5.00;80.56;99272.19;5093014;28;20375;-43
2023/01/21 02:50:05;;;;;;;;;;;;;;;4.73;81.24;99265.66;5092982;28;19912;-43
2023/01/21 02:52:31;;;;;;;;;;;;;;;4.62;82.69;99261.63;5091961;28;19935;-43
2023/01/21 02:54:57;;;;;;;;;;;;;;;4.64;82.06;99258.81;5092874;28;20359;-42
2023/01/21 02:57:43;;;;;;;;;;;;;;;4.56;83.36;99243.88;5092937;28;19916;-43
2023/01/21 03:00:17;;;;;;;;;;;;;;;4.70;82.76;99247.56;5085198;28;19995;-43
2023/01/21 03:02:51;;;;;;;;;;;;;;;4.73;82.00;99262.22;5092821;28;19988;-44
2023/01/21 03:05:28;;;;;;;;;;;;;;;4.74;81.95;99251.50;5092560;28;19912;-42
2023/01/21 03:07:53;;;;;;;;;;;;;;;4.85;81.19;99248.41;5092507;28;19999;-43
2023/01/21 03:10:39;;;;;;;;;;;;;;;4.75;81.33;99252.31;5092626;28;20027;-44
2023/01/21 03:13:09;;;;;;;;;;;;;;;4.74;82.09;99248.03;5092142;28;19920;-43
2023/01/21 03:18:23;;;;;;;;;;;;;;;4.70;81.06;99258.09;5092540;28;20576;-42
2023/01/21 03:21:02;;;;;;;;;;;;;;;4.70;80.76;99263.38;5091681;28;20373;-42
2023/01/21 03:23:31;;;;;;;;;;;;;;;4.49;82.11;99250.84;5092498;28;20627;-42
2023/01/21 03:25:58;;;;;;;;;;;;;;;4.76;81.18;99246.88;5092330;28;19955;-42
2023/01/21 03:28:25;;;;;;;;;;;;;;;4.48;82.21;99246.59;5093152;28;19916;-42
2023/01/21 03:30:55;;;;;;;;;;;;;;;4.58;82.53;99246.34;5092608;28;19919;-42
2023/01/21 03:33:21;;;;;;;;;;;;;;;4.56;82.47;99249.16;5092363;28;20313;-42
2023/01/21 03:35:48;;;;;;;;;;;;;;;4.53;82.08;99241.59;5092260;28;20331;-42
2023/01/21 03:38:25;;;;;;;;;;;;;;;4.54;82.18;99235.34;5092167;28;20352;-42
2023/01/21 03:40:55;;;;;;;;;;;;;;;3.91;84.24;99224.88;5092377;28;20004;-42
2023/01/21 03:43:21;;;;;;;;;;;;;;;4.02;84.35;99225.50;5092224;28;19992;-43
2023/01/21 03:45:53;;;;;;;;;;;;;;;3.80;85.57;99225.28;5092274;28;20332;-43
2023/01/21 03:48:37;;;;;;;;;;;;;;;3.66;86.10;99239.97;5092157;28;19920;-42
2023/01/21 03:51:08;;;;;;;;;;;;;;;3.64;86.23;99241.97;5092465;28;19916;-42
2023/01/21 03:53:34;;;;;;;;;;;;;;;3.91;85.74;99250.41;5092098;28;19912;-42
2023/01/21 03:55:59;;;;;;;;;;;;;;;3.96;84.68;99255.13;5092177;28;19984;-42
2023/01/21 03:58:24;;;;;;;;;;;;;;;3.86;84.95;99256.16;5092212;28;20361;-43
2023/01/21 04:00:50;;;;;;;;;;;;;;;3.84;84.34;99265.22;5092391;28;19916;-42
2023/01/21 04:03:15;;;;;;;;;;;;;;;4.00;83.46;99266.97;5091524;28;20347;-42
2023/01/21 04:05:40;;;;;;;;;;;;;;;3.89;83.36;99279.53;5091552;28;19912;-42
2023/01/21 04:08:06;;;;;;;;;;;;;;;3.70;84.32;99269.41;5092344;28;19912;-42
2023/01/21 04:10:31;;;;;;;;;;;;;;;3.64;85.45;99286.69;5092007;28;19912;-42
2023/01/21 04:12:56;;;;;;;;;;;;;;;3.53;85.62;99279.97;5091724;28;20022;-42
2023/01/21 04:15:21;;;;;;;;;;;;;;;3.72;84.86;99277.94;5092109;28;19912;-42
2023/01/21 04:17:47;;;;;;;;;;;;;;;3.46;84.99;99283.47;5092006;28;20015;-42
2023/01/21 04:20:12;;;;;;;;;;;;;;;3.44;85.84;99270.47;5091915;28;19935;-42
2023/01/21 04:22:37;;;;;;;;;;;;;;;3.27;85.69;99274.13;5091854;28;20269;-42
2023/01/21 04:25:04;;;;;;;;;;;;;;;3.25;86.43;99269.03;5092149;28;19916;-43
2023/01/21 04:27:29;;;;;;;;;;;;;;;3.26;86.69;99275.94;5091677;28;19941;-43
2023/01/21 04:29:55;;;;;;;;;;;;;;;3.16;86.29;99285.84;5091794;28;19916;-43
2023/01/21 04:32:20;;;;;;;;;;;;;;;3.34;86.00;99301.41;5091736;28;19912;-43
2023/01/21 04:34:45;;;;;;;;;;;;;;;2.98;86.77;99312.28;5091586;28;19926;-42
2023/01/21 04:37:10;;;;;;;;;;;;;;;2.94;86.70;99288.13;5091426;28;19926;-42
2023/01/21 04:39:36;;;;;;;;;;;;;;;3.03;87.42;99288.16;5091654;28;20275;-41
2023/01/21 04:42:01;;;;;;;;;;;;;;;3.17;86.15;99303.25;5090364;28;19916;-42
2023/01/21 04:44:26;;;;;;;;;;;;;;;3.24;86.60;99295.53;5091774;28;19912;-42
2023/01/21 04:46:51;;;;;;;;;;;;;;;3.21;87.09;99283.50;5091396;28;19912;-42
2023/01/21 04:49:17;;;;;;;;;;;;;;;3.10;90.07;99289.97;5091751;28;20033;-42
2023/01/21 04:51:42;;;;;;;;;;;;;;;3.42;88.03;99290.06;5091572;28;20375;-42
2023/01/21 04:54:08;;;;;;;;;;;;;;;3.55;86.49;99286.91;5091418;28;19961;-43
2023/01/21 04:56:34;;;;;;;;;;;;;;;3.44;85.46;99296.78;5090747;28;19943;-42
2023/01/21 04:58:59;;;;;;;;;;;;;;;3.64;85.20;99293.78;5091071;28;20016;-42
2023/01/21 05:01:24;;;;;;;;;;;;;;;3.58;86.26;99279.50;5091026;28;20331;-42
2023/01/21 05:03:50;;;;;;;;;;;;;;;3.51;86.01;99276.69;5091221;28;19912;-42
2023/01/21 05:06:16;;;;;;;;;;;;;;;3.69;84.77;99288.81;5090867;28;19999;-42
2023/01/21 05:08:41;;;;;;;;;;;;;;;3.79;84.52;99284.19;5091088;28;20007;-42
2023/01/21 05:11:08;;;;;;;;;;;;;;;3.60;85.73;99303.81;5090940;28;20006;-42
2023/01/21 05:13:33;;;;;;;;;;;;;;;3.33;85.69;99305.00;5090695;28;20318;-42
2023/01/21 05:16:02;;;;;;;;;;;;;;;3.39;86.32;99314.88;5092967;28;20011;-43
2023/01/21 05:18:28;;;;;;;;;;;;;;;3.39;86.96;99317.53;5095062;28;19920;-42
2023/01/21 05:20:54;;;;;;;;;;;;;;;3.48;86.86;99328.84;5094752;28;19989;-42
2023/01/21 05:23:19;;;;;;;;;;;;;;;3.52;86.58;99327.50;5094785;28;19912;-42
2023/01/21 05:25:47;;;;;;;;;;;;;;;3.56;86.89;99334.09;5094428;28;19920;-42
2023/01/21 05:28:12;;;;;;;;;;;;;;;3.81;85.37;99329.59;5086493;28;20336;-42
2023/01/21 05:30:37;;;;;;;;;;;;;;;3.53;85.43;99329.16;5075028;28;19943;-41
2023/01/21 05:33:03;;;;;;;;;;;;;;;3.40;86.49;99319.16;5075066;28;19943;-43
2023/01/21 05:35:28;;;;;;;;;;;;;;;3.28;87.20;99316.06;5074739;28;19924;-41
2023/01/21 05:37:53;;;;;;;;;;;;;;;3.43;84.45;99329.34;5074633;28;19917;-42
2023/01/21 05:40:19;;;;;;;;;;;;;;;3.00;84.48;99326.09;5083282;28;20344;-42
2023/01/21 05:42:44;;;;;;;;;;;;;;;3.21;86.50;99316.88;5075106;28;19912;-43
2023/01/21 05:45:13;;;;;;;;;;;;;;;3.24;85.75;99324.44;5074548;28;20352;-43
2023/01/21 05:47:38;;;;;;;;;;;;;;;3.08;86.06;99315.56;5074610;28;20364;-42
2023/01/21 05:50:04;;;;;;;;;;;;;;;3.11;86.86;99338.09;5074916;28;19966;-43
2023/01/21 05:52:29;;;;;;;;;;;;;;;2.87;85.87;99341.53;5074457;28;20002;-43
2023/01/21 05:54:54;;;;;;;;;;;;;;;3.19;86.32;99345.16;5074201;28;20390;-43
2023/01/21 05:57:20;;;;;;;;;;;;;;;5.77;96.60;99350.28;5074342;28;19917;-43
2023/01/21 05:59:45;;;;;;;;;;;;;;;5.73;90.43;99356.94;5074510;28;19912;-43
2023/01/21 06:02:10;;;;;;;;;;;;;;;5.24;77.85;99360.84;5073962;28;19970;-43
2023/01/21 06:04:35;;;;;;;;;;;;;;;4.39;79.19;99351.22;5073391;28;20002;-43
2023/01/21 06:07:01;;;;;;;;;;;;;;;3.87;82.30;99349.16;5073604;28;20391;-43
2023/01/21 06:09:26;;;;;;;;;;;;;;;3.48;84.58;99352.50;5084785;28;19938;-43
2023/01/21 06:11:51;;;;;;;;;;;;;;;3.38;86.09;99344.81;5093769;28;19912;-42
2023/01/21 06:14:17;;;;;;;;;;;;;;;3.48;85.76;99348.09;5093828;28;19919;-43
2023/01/21 06:16:42;;;;;;;;;;;;;;;3.25;85.51;99347.13;5093864;28;19917;-43
2023/01/21 06:19:07;;;;;;;;;;;;;;;3.11;86.98;99345.97;5093691;28;20261;-43
2023/01/21 06:21:32;;;;;;;;;;;;;;;3.18;88.95;99344.34;5093367;28;19928;-43
2023/01/21 06:23:59;;;;;;;;;;;;;;;3.24;89.35;99340.22;5093129;28;19912;-43
2023/01/21 06:26:24;;;;;;;;;;;;;;;3.36;89.39;99333.63;5093481;28;19992;-44
2023/01/21 06:28:50;;;;;;;;;;;;;;;3.28;88.51;99326.56;5093343;28;20371;-42
2023/01/21 06:31:15;;;;;;;;;;;;;;;3.62;88.80;99320.25;5093303;28;20383;-42
2023/01/21 06:33:40;;;;;;;;;;;;;;;3.40;89.58;99319.16;5093727;28;19959;-43
2023/01/21 06:36:06;;;;;;;;;;;;;;;3.46;90.21;99341.34;5093346;28;19918;-43
2023/01/21 06:38:34;;;;;;;;;;;;;;;3.29;90.39;99361.56;5093223;28;19916;-42
2023/01/21 06:41:00;;;;;;;;;;;;;;;3.72;89.67;99355.09;5093196;28;19912;-44
2023/01/21 06:43:25;;;;;;;;;;;;;;;3.75;87.89;99380.28;5093187;28;19913;-43
2023/01/21 06:45:51;;;;;;;;;;;;;;;3.71;88.15;99390.31;5093242;28;19912;-43
2023/01/21 06:48:16;;;;;;;;;;;;;;;3.91;86.79;99374.94;5093436;28;19973;-44
2023/01/21 06:50:41;;;;;;;;;;;;;;;3.71;87.92;99376.31;5093267;28;19923;-44
2023/01/21 06:53:06;;;;;;;;;;;;;;;3.55;88.10;99366.66;5092975;28;19912;-44
2023/01/21 06:55:32;;;;;;;;;;;;;;;3.79;87.77;99378.94;5092936;28;19920;-44
2023/01/21 06:57:57;;;;;;;;;;;;;;;3.91;87.65;99389.94;5092830;28;20300;-44
2023/01/21 07:00:22;;;;;;;;;;;;;;;3.57;88.84;99396.25;5093054;28;19920;-44
2023/01/21 07:02:48;;;;;;;;;;;;;;;3.67;89.64;99401.31;5093373;28;19968;-44
2023/01/21 07:05:13;;;;;;;;;;;;;;;3.86;90.38;99400.94;5092893;28;19916;-44
2023/01/21 07:07:39;;;;;;;;;;;;;;;4.01;89.48;99400.28;5092831;28;19912;-44
2023/01/21 07:10:04;;;;;;;;;;;;;;;4.00;89.48;99395.97;5092922;28;19916;-44
2023/01/21 07:12:30;;;;;;;;;;;;;;;4.22;88.62;99403.16;5092519;28;19912;-44
2023/01/21 07:14:55;;;;;;;;;;;;;;;4.04;89.97;99407.84;5092912;28;19911;-43
2023/01/21 07:17:21;;;;;;;;;;;;;;;4.21;89.82;99425.22;5092463;28;20382;-44
2023/01/21 07:19:47;;;;;;;;;;;;;;;4.36;88.69;99399.00;5092070;28;19924;-43
2023/01/21 07:22:12;;;;;;;;;;;;;;;4.17;89.65;99387.06;5092438;28;19923;-43
2023/01/21 07:24:37;;;;;;;;;;;;;;;3.77;92.29;99396.72;5090968;28;19912;-44
2023/01/21 07:27:04;;;;;;;;;;;;;;;4.09;91.96;99405.50;5080711;28;19916;-43
2023/01/21 07:29:30;;;;;;;;;;;;;;;4.34;89.79;99402.78;5092081;28;19935;-37
2023/01/21 07:31:55;;;;;;;;;;;;;;;4.33;89.23;99404.59;5091982;28;20252;-43
2023/01/21 07:34:20;;;;;;;;;;;;;;;4.08;91.22;99396.78;5091388;28;19912;-43
2023/01/21 07:36:46;;;;;;;;;;;;;;;3.87;91.12;99394.72;5091460;28;19935;-42
2023/01/21 07:39:11;;;;;;;;;;;;;;;4.05;90.91;99415.53;5090883;28;20007;-42
2023/01/21 07:41:36;;;;;;;;;;;;;;;4.16;90.27;99417.00;5091536;28;19912;-37
2023/01/21 07:44:01;;;;;;;;;;;;;;;4.10;90.65;99420.31;5091654;28;19947;-38
2023/01/21 07:46:27;;;;;;;;;;;;;;;4.33;89.70;99415.13;5091740;28;19912;-36
2023/01/21 07:48:52;;;;;;;;;;;;;;;4.49;89.82;99407.16;5091552;28;19912;-36
2023/01/21 07:51:18;;;;;;;;;;;;;;;4.61;88.70;99417.31;5091290;28;19939;-36
2023/01/21 07:53:43;;;;;;;;;;;;;;;4.86;88.44;99421.44;5091221;28;19918;-42
2023/01/21 07:56:09;;;;;;;;;;;;;;;4.93;87.98;99428.66;5091145;28;19950;-42
2023/01/21 07:58:34;;;;;;;;;;;;;;;5.08;87.00;99417.19;5091564;28;19970;-42
2023/01/21 08:01:02;;;;;;;;;;;;;;;4.95;86.88;99416.97;5091342;28;19963;-43
2023/01/21 08:03:27;;;;;;;;;;;;;;;4.94;87.50;99422.41;5091426;28;19912;-42
2023/01/21 08:05:52;;;;;;;;;;;;;;;5.09;87.11;99418.00;5090937;28;19912;-37
2023/01/21 08:08:18;;;;;;;;;;;;;;;5.29;86.55;99429.75;5091273;28;20445;-36
2023/01/21 08:10:43;;;;;;;;;;;;;;;5.32;86.52;99438.31;5091036;28;20315;-37
2023/01/21 08:13:08;;;;;;;;;;;;;;;5.47;87.06;99437.34;5090676;28;20104;-36
2023/01/21 08:15:34;;;;;;;;;;;;;;;5.58;87.61;99417.63;5090668;28;19916;-35
2023/01/21 08:17:59;;;;;;;;;;;;;;;6.44;85.25;99411.94;5090768;28;19985;-36
2023/01/21 08:20:24;;;;;;;;;;;;;;;6.63;82.49;99421.13;5090556;28;19924;-36
2023/01/21 08:22:50;;;;;;;;;;;;;;;6.68;82.39;99418.72;5076252;28;19966;-36
2023/01/21 08:25:15;;;;;;;;;;;;;;;6.83;80.01;99397.53;5081626;28;19923;-44
2023/01/21 08:27:40;;;;;;;;;;;;;;;7.11;80.20;99412.69;5070825;28;20359;-43
2023/01/21 08:30:06;;;;;;;;;;;;;;;6.82;79.61;99406.47;5073152;28;19923;-37
2023/01/21 08:32:31;;;;;;;;;;;;;;;6.67;80.57;99406.53;5081774;28;19920;-42
2023/01/21 08:34:57;;;;;;;;;;;;;;;6.42;81.75;99414.78;5071301;28;19912;-43
2023/01/21 08:37:22;;;;;;;;;;;;;;;6.49;80.43;99419.31;5070824;28;19923;-43
2023/01/21 08:39:47;;;;;;;;;;;;;;;6.40;80.77;99426.53;5070473;28;19912;-43
2023/01/21 08:42:13;;;;;;;;;;;;;;;6.54;79.64;99422.22;5070309;28;20586;-42
2023/01/21 08:44:38;;;;;;;;;;;;;;;6.46;80.36;99415.22;5070431;28;19908;-42
2023/01/21 08:47:03;;;;;;;;;;;;;;;6.38;80.48;99432.00;5070602;28;19917;-41
2023/01/21 08:49:29;;;;;;;;;;;;;;;6.43;81.41;99431.44;5069962;28;19913;-41
2023/01/21 08:51:54;;;;;;;;;;;;;;;6.28;81.74;99418.22;5070418;28;19916;-42
2023/01/21 08:54:19;;;;;;;;;;;;;;;6.54;80.95;99404.53;5070696;28;19919;-42
2023/01/21 08:56:45;;;;;;;;;;;;;;;6.50;80.74;99405.09;5070640;28;20006;-42
2023/01/21 08:59:10;;;;;;;;;;;;;;;6.73;79.59;99403.13;5070911;28;19920;-37
2023/01/21 09:01:39;;;;;;;;;;;;;;;6.22;81.05;99398.66;5070459;28;20360;-38
2023/01/21 09:04:05;;;;;;;;;;;;;;;6.55;80.87;99389.47;5070922;28;19923;-37
2023/01/21 09:06:31;;;;;;;;;;;;;;;6.63;79.25;99394.69;5070770;28;19912;-37
2023/01/21 09:08:57;;;;;;;;;;;;;;;7.00;79.17;99393.63;5070449;28;19913;-36
2023/01/21 09:11:22;;;;;;;;;;;;;;;6.91;78.50;99386.84;5072736;28;19936;-42
2023/01/21 09:13:48;;;;;;;;;;;;;;;7.13;77.80;99377.06;5087636;28;20372;-42
2023/01/21 09:16:14;;;;;;;;;;;;;;;6.97;78.47;99379.97;5090479;28;19931;-42
2023/01/21 09:18:39;;;;;;;;;;;;;;;6.81;79.05;99381.03;5090725;28;19998;-42
2023/01/21 09:21:05;;;;;;;;;;;;;;;6.64;79.69;99383.09;5090524;28;19970;-42
2023/01/21 09:23:33;;;;;;;;;;;;;;;6.83;78.59;99371.91;5090328;28;20432;-42
2023/01/21 09:26:01;;;;;;;;;;;;;;;6.99;78.64;99362.91;5090336;28;19938;-42
2023/01/21 09:28:27;;;;;;;;;;;;;;;7.25;78.09;99380.00;5090372;28;19908;-42
2023/01/21 09:30:57;;;;;;;;;;;;;;;7.12;78.12;99377.25;5090122;28;19912;-42
2023/01/21 09:33:22;;;;;;;;;;;;;;;7.32;77.82;99372.16;5088927;28;19912;-42
2023/01/21 09:35:54;;;;;;;;;;;;;;;7.36;77.07;99368.09;5090342;28;19935;-42
2023/01/21 09:38:19;;;;;;;;;;;;;;;7.34;77.87;99375.41;5089931;28;19917;-42
2023/01/21 09:40:45;;;;;;;;;;;;;;;7.10;78.59;99380.09;5081927;28;19939;-42
2023/01/21 09:43:14;;;;;;;;;;;;;;;7.17;78.76;99365.09;5074907;28;19912;-41
2023/01/21 09:45:40;;;;;;;;;;;;;;;7.03;79.07;99368.63;5069324;28;19913;-42
2023/01/21 09:48:07;;;;;;;;;;;;;;;7.26;78.42;99379.03;5069319;28;19912;-41
2023/01/21 09:50:33;;;;;;;;;;;;;;;7.02;78.70;99370.44;5070019;28;19912;-42
2023/01/21 09:53:03;;;;;;;;;;;;;;;7.23;78.09;99374.09;5069791;28;20382;-42
2023/01/21 09:55:34;;;;;;;;;;;;;;;7.11;78.91;99373.78;5068909;28;20439;-42
2023/01/21 09:58:08;;;;;;;;;;;;;;;7.55;77.03;99370.06;5069598;28;20343;-42
2023/01/21 10:00:46;;;;;;;;;;;;;;;7.57;77.92;99356.66;5069825;28;19916;-42
2023/01/21 10:03:20;;;;;;;;;;;;;;;7.42;78.28;99352.28;5073762;28;19920;-42
2023/01/21 10:05:52;;;;;;;;;;;;;;;7.83;77.16;99335.63;5073317;28;19917;-42
2023/01/21 10:08:23;;;;;;;;;;;;;;;7.89;76.35;99343.81;5080511;28;20001;-42
2023/01/21 10:10:54;;;;;;;;;;;;;;;8.17;76.28;99343.75;5093233;28;19912;-42
2023/01/21 10:13:19;;;;;;;;;;;;;;;8.37;74.43;99335.84;5092300;28;20639;-42
2023/01/21 10:16:08;;;;;;;;;;;;;;;8.18;76.04;99335.56;5093145;28;19919;-41
2023/01/21 10:18:35;;;;;;;;;;;;;;;8.66;78.69;99331.28;5072501;28;19928;-42
2023/01/21 10:21:05;;;;;;;;;;;;;;;8.80;73.73;99327.63;5092265;28;19924;-42
2023/01/21 10:23:37;;;;;;;;;;;;;;;8.48;74.56;99326.53;5092580;28;20302;-42
2023/01/21 10:26:06;;;;;;;;;;;;;;;8.48;74.53;99322.06;5092999;28;19912;-42
2023/01/21 10:28:32;;;;;;;;;;;;;;;8.64;73.78;99309.44;5092446;28;19911;-42
2023/01/21 10:31:01;;;;;;;;;;;;;;;8.67;74.12;99299.25;5091934;28;19964;-42
2023/01/21 10:33:29;;;;;;;;;;;;;;;8.65;74.65;99303.13;5092967;28;19994;-42
2023/01/21 10:36:13;;;;;;;;;;;;;;;9.13;75.91;99297.63;5092178;28;19935;-43
2023/01/21 10:38:44;;;;;;;;;;;;;;;9.25;72.80;99288.03;5092213;28;20425;-41
2023/01/21 10:41:10;;;;;;;;;;;;;;;9.29;72.60;99280.47;5092454;28;20169;-42
2023/01/21 10:43:39;;;;;;;;;;;;;;;9.20;71.74;99279.88;5092420;28;19969;-42
2023/01/21 10:46:13;;;;;;;;;;;;;;;9.38;72.50;99284.53;5092179;28;19935;-43
2023/01/21 10:48:50;;;;;;;;;;;;;;;9.33;71.69;99271.91;5091984;28;20260;-42
2023/01/21 10:51:20;;;;;;;;;;;;;;;9.41;70.73;99276.16;5092201;28;19912;-43
2023/01/21 10:54:01;;;;;;;;;;;;;;;9.21;71.26;99276.19;5091946;28;19949;-42
2023/01/21 10:56:45;;;;;;;;;;;;;;;9.17;72.10;99275.78;5092445;28;19975;-43
2023/01/21 10:59:30;;;;;;;;;;;;;;;9.19;71.40;99272.91;5093855;28;19927;-42
2023/01/21 11:02:19;;;;;;;;;;;;;;;8.82;73.56;99261.09;5091755;28;20010;-43
2023/01/21 11:04:45;;;;;;;;;;;;;;;9.33;72.12;99257.81;5086563;28;19915;-43
2023/01/21 11:07:13;;;;;;;;;;;;;;;9.21;72.24;99252.28;5092069;28;20307;-42
2023/01/21 11:09:40;;;;;;;;;;;;;;;9.54;71.36;99248.78;5092066;28;19912;-42
2023/01/21 11:12:08;;;;;;;;;;;;;;;9.83;70.55;99233.34;5087453;28;20392;-42
2023/01/21 11:14:33;;;;;;;;;;;;;;;9.93;69.90;99231.03;5080675;28;19916;-42
2023/01/21 11:16:59;;;;;;;;;;;;;;;9.84;70.42;99238.44;5072295;28;20350;-42
2023/01/21 11:19:25;;;;;;;;;;;;;;;9.91;69.70;99241.06;5072099;28;19923;-42
2023/01/21 11:21:56;;;;;;;;;;;;;;;10.18;69.74;99253.22;5071476;28;19955;-42
2023/01/21 11:24:23;;;;;;;;;;;;;;;10.03;69.76;99249.19;5069546;28;20265;-42
2023/01/21 11:26:50;;;;;;;;;;;;;;;10.27;69.11;99255.63;5091015;28;20403;-42
2023/01/21 11:29:16;;;;;;;;;;;;;;;10.36;68.58;99259.69;5085280;28;19916;-42
2023/01/21 11:31:50;;;;;;;;;;;;;;;10.18;69.60;99269.16;5075797;28;20007;-43
2023/01/21 11:34:19;;;;;;;;;;;;;;;10.43;68.37;99262.31;5074108;28;19916;-42
2023/01/21 11:36:55;;;;;;;;;;;;;;;10.16;68.79;99257.09;5080162;28;20284;-42
2023/01/21 11:39:25;;;;;;;;;;;;;;;10.24;68.89;99248.06;5071911;28;19912;-42
2023/01/21 11:41:51;;;;;;;;;;;;;;;10.36;68.88;99241.88;5071398;28;19913;-42
2023/01/21 11:44:17;;;;;;;;;;;;;;;10.46;68.03;99228.09;5071022;28;20400;-41
2023/01/21 11:46:42;;;;;;;;;;;;;;;10.32;69.12;99224.72;5071379;28;19912;-43
2023/01/21 11:49:08;;;;;;;;;;;;;;;10.73;67.96;99210.09;5071477;28;20383;-37
2023/01/21 11:51:40;;;;;;;;;;;;;;;10.87;67.20;99205.50;5071547;28;19917;-37
2023/01/21 11:54:13;;;;;;;;;;;;;;;10.89;66.78;99200.75;5071415;28;19965;-37
2023/01/21 11:56:39;;;;;;;;;;;;;;;10.86;67.71;99219.81;5071118;28;19920;-36
2023/01/21 11:59:16;;;;;;;;;;;;;;;11.23;67.11;99225.22;5079905;28;19915;-42
2023/01/21 12:01:49;;;;;;;;;;;;;;;11.15;67.07;99230.81;5111922;28;19947;-41
2023/01/21 12:04:14;;;;;;;;;;;;;;;11.24;66.45;99229.50;5111888;28;19947;-42
2023/01/21 12:06:43;;;;;;;;;;;;;;;11.15;67.20;99223.63;5111813;28;19940;-42
2023/01/21 12:09:15;;;;;;;;;;;;;;;11.45;66.88;99222.13;5112019;28;19971;-43
2023/01/21 12:11:41;;;;;;;;;;;;;;;11.00;66.86;99225.03;5111650;28;19915;-43
2023/01/21 12:14:13;;;;;;;;;;;;;;;11.13;67.94;99217.72;5111114;28;19960;-42
2023/01/21 12:16:54;;;;;;;;;;;;;;;11.26;67.33;99221.31;5111361;28;19965;-42
2023/01/21 12:19:22;;;;;;;;;;;;;;;11.40;67.50;99228.09;5111578;28;20326;-42
2023/01/21 12:22:06;;;;;;;;;;;;;;;11.84;66.45;99230.69;5111895;28;19911;-42
2023/01/21 12:24:49;;;;;;;;;;;;;;;11.67;66.93;99233.16;5109577;28;20003;-44
2023/01/21 12:27:17;;;;;;;;;;;;;;;11.12;69.10;99225.97;5090799;28;20011;-41
2023/01/21 12:29:52;;;;;;;;;;;;;;;11.63;68.56;99226.63;5090786;28;19949;-37
2023/01/21 12:32:38;;;;;;;;;;;;;;;12.55;64.21;99231.00;5090940;28;19959;-38
2023/01/21 12:35:28;;;;;;;;;;;;;;;13.27;62.65;99237.00;5091022;28;19912;-36
2023/01/21 12:37:59;;;;;;;;;;;;;;;13.34;61.33;99228.06;5079379;28;20183;-38
2023/01/21 12:40:29;;;;;;;;;;;;;;;13.02;62.98;99234.56;5085820;28;19916;-37
2023/01/21 12:42:59;;;;;;;;;;;;;;;12.25;65.28;99245.19;5090901;28;19916;-37
2023/01/21 12:45:29;;;;;;;;;;;;;;;12.54;65.22;99245.38;5090658;28;19912;-37
2023/01/21 12:48:00;;;;;;;;;;;;;;;12.82;64.22;99252.75;5090110;28;19916;-37
2023/01/21 12:50:44;;;;;;;;;;;;;;;12.41;65.56;99225.84;5082471;28;19916;-37
2023/01/21 12:53:21;;;;;;;;;;;;;;;12.40;65.54;99226.91;5070932;28;20411;-37
2023/01/21 12:55:57;;;;;;;;;;;;;;;12.37;65.39;99230.00;5070559;28;19916;-36
2023/01/21 12:58:25;;;;;;;;;;;;;;;12.24;65.61;99228.38;5070706;28;20532;-37
2023/01/21 13:00:52;;;;;;;;;;;;;;;12.63;64.56;99226.13;5108733;28;19916;-42